NCAR-RAP Real-Time Weather Data

Output produced by METARs form (01 December 2020  17:18 UTC)
found at http://weather.rap.ucar.edu/surface/
 
KABQ 011652Z 00000KT 10SM CLR 03/M09 A3008 RMK AO2 SLP188 T00281094
KABQ 011552Z 29003KT 10SM CLR 01/M10 A3010 RMK AO2 SLP200 T00061100
KABQ 011452Z 16004KT 10SM CLR M03/M11 A3009 RMK AO2 SLP206 T10331106 58003
KABQ 011352Z 14003KT 10SM CLR M04/M11 A3010 RMK AO2 SLP212 T10391111
KABQ 011252Z 14003KT 10SM CLR M04/M12 A3010 RMK AO2 SLP202 T10391117
KABQ 011152Z 16003KT 10SM CLR M03/M12 A3010 RMK AO2 SLP197 T10331117 10006 21039 58012
KABQ 011052Z 13005KT 10SM CLR M04/M12 A3012 RMK AO2 SLP203 T10391117
KABQ 010952Z 12004KT 10SM CLR M02/M11 A3014 RMK AO2 SLP205 T10171111
KABQ 010852Z 12006KT 10SM FEW220 M02/M12 A3014 RMK AO2 SLP206 CCSL SE T10221117 58018
KABQ 010752Z 13009KT 10SM FEW220 M02/M12 A3016 RMK AO2 SLP217 CCSL SE T10171117
KABQ 010652Z 10004KT 10SM FEW220 M01/M11 A3020 RMK AO2 SLP225 T10061111 400781039
KABQ 010552Z 10003KT 10SM SCT250 00/M11 A3021 RMK AO2 SLP234 T00001111 10061 21006 58005
KABQ 010452Z 08004KT 10SM SCT250 02/M11 A3021 RMK AO2 SLP236 T00171111
KABQ 010352Z 12006KT 10SM SCT250 00/M12 A3022 RMK AO2 SLP248 T00001117